Latest Weather Observations for Ayr

IDQ60801

Issued at 9:32 pm EST Sunday 23 April 2017 (issued every 30 minutes, with the page automatically refreshed every 10 minutes)

About weather observations | Map of weather stations | Latest weather observations for QLD | Other Formats
Station Details ID: 033002 Name: AYR DPI RESEARCH STN Lat: -19.62 Lon: 147.38 Height: 17.0 m
Data from the previous 72 hours. | See also: Recent months at Ayr
Date/Time
EST
Temp
°C
App
Temp
°C
Dew
Point
°C
Rel
Hum
%
Delta-T
°C
Wind Press
QNH
hPa
Press
MSL
hPa
Rain since
9am
mm
Dir  Spd
km/h
Gust
km/h
Spd
kts
Gust
kts
23/09:30pm 21.0 22.2 17.4 80 2.2 SSE 7 11 4 6 - - 0.0
23/09:00pm 21.4 22.7 17.6 79 2.3 SSE 7 11 4 6 - - 0.0
23/08:30pm 22.3 23.4 17.9 76 2.7 SE 9 15 5 8 - - 0.0
23/08:00pm 22.8 23.1 17.9 74 3.1 ESE 13 19 7 10 - - 0.0
23/07:30pm 23.2 24.3 18.1 73 3.2 SE 9 13 5 7 - - 0.0
23/07:00pm 23.2 24.1 18.5 75 3.0 E 11 17 6 9 - - 0.0
23/06:30pm 23.8 25.2 17.8 69 3.7 E 7 11 4 6 - - 0.0
23/06:00pm 24.4 26.1 18.1 68 4.0 SSE 6 9 3 5 - - 0.0
23/05:30pm 24.9 26.0 17.9 65 4.4 SSE 9 17 5 9 - - 0.0
23/05:00pm 25.4 26.0 17.8 62 4.8 SSE 11 19 6 10 - - 0.0
23/04:30pm 25.3 25.7 17.2 61 5.0 SE 11 17 6 9 - - 0.0
23/04:00pm 25.4 24.5 17.8 62 4.8 SE 19 26 10 14 - - 0.0
23/03:30pm 25.9 25.1 17.0 58 5.5 SSE 17 26 9 14 - - 0.0
23/03:00pm 27.5 25.6 16.8 52 6.7 SE 22 33 12 18 - - 0.0
23/02:30pm 27.0 24.9 17.2 55 6.1 SE 24 35 13 19 - - 0.0
23/02:00pm 28.6 27.6 16.5 48 7.5 ESE 17 26 9 14 - - 0.0
23/01:30pm 28.1 27.1 15.7 46 7.6 ESE 15 20 8 11 - - 0.0
23/01:00pm 28.9 27.9 16.5 47 7.7 E 17 26 9 14 - - 0.0
23/12:30pm 28.6 27.7 17.8 52 6.9 E 19 30 10 16 - - 0.0
23/12:00pm 28.4 27.3 17.3 51 7.0 E 19 30 10 16 - - 0.0
23/11:30am 28.5 27.5 18.0 53 6.7 ESE 20 30 11 16 - - 0.0
23/11:00am 28.0 27.4 17.5 52 6.6 E 17 30 9 16 - - 0.0
23/10:30am 27.7 26.6 17.2 52 6.6 SE 19 32 10 17 - - 0.0
23/10:00am 27.1 26.3 18.1 58 5.7 SE 19 28 10 15 - - 0.0
23/09:30am 25.8 25.4 18.0 62 4.9 ESE 17 24 9 13 - - 0.0
23/09:00am 25.0 24.5 17.7 64 4.6 SSE 17 24 9 13 - - 0.0
23/08:30am 23.6 24.1 18.3 72 3.3 SSE 13 19 7 10 - - 0.0
23/08:00am 22.4 23.1 18.0 76 2.7 S 11 19 6 10 - - 0.0
23/07:30am 21.5 22.6 18.9 85 1.6 S 11 13 6 7 - - 0.0
23/07:00am 20.5 20.9 18.1 86 1.5 S 13 17 7 9 - - 0.0
23/06:30am 20.0 21.2 17.4 85 1.6 S 7 9 4 5 - - 0.0
23/06:00am 20.6 21.4 17.4 82 2.0 S 9 11 5 6 - - 0.0
23/05:30am 20.7 22.2 18.1 85 1.6 SSE 7 13 4 7 - - 0.0
23/05:00am 20.4 21.9 18.0 86 1.5 SSE 7 11 4 6 - - 0.0
23/04:30am 19.8 21.1 17.2 85 1.6 SSE 6 7 3 4 - - 0.0
23/04:00am 19.7 20.8 17.1 85 1.6 SSE 7 9 4 5 - - 0.0
23/03:30am 19.7 20.8 17.1 85 1.6 SSE 7 11 4 6 - - 0.0
23/03:00am 19.7 20.4 17.1 85 1.6 SSE 9 11 5 6 - - 0.0
23/02:30am 19.1 20.0 16.5 85 1.6 SSE 7 9 4 5 - - 0.0
23/02:00am 19.2 20.3 16.6 85 1.6 SSE 6 9 3 5 - - 0.0
23/01:30am 19.3 21.0 16.3 83 1.8 SE 2 7 1 4 - - 0.0
23/01:00am 19.7 20.6 16.5 82 1.9 SSE 7 9 4 5 - - 0.0
23/12:30am 20.8 21.9 17.0 79 2.3 SE 7 13 4 7 - - 0.0
23/12:00am 21.6 22.1 17.4 77 2.6 SE 11 17 6 9 - - 0.0
 
Date/Time
EST
Temp
°C
App
Temp
°C
Dew
Point
°C
Rel
Hum
%
Delta-T
°C
Wind Press
QNH
hPa
Press
MSL
hPa
Rain since
9am
mm
Dir  Spd
km/h
Gust
km/h
Spd
kts
Gust
kts
22/11:30pm 21.4 21.8 17.2 77 2.6 SE 11 17 6 9 - - 0.0
22/11:00pm 20.9 21.7 17.3 80 2.2 SE 9 13 5 7 - - 0.0
22/10:30pm 20.5 21.6 16.7 79 2.3 SSE 6 7 3 4 - - 0.0
22/10:00pm 21.5 22.8 17.5 78 2.5 SE 7 11 4 6 - - 0.0
22/09:30pm 21.7 23.0 17.5 77 2.6 SE 7 9 4 5 - - 0.0
22/09:00pm 22.2 23.2 17.8 76 2.7 ESE 9 13 5 7 - - 0.0
22/08:30pm 22.5 23.3 17.4 73 3.1 ESE 9 11 5 6 - - 0.0
22/08:00pm 23.2 24.1 17.6 71 3.5 ESE 9 13 5 7 - - 0.0
22/07:30pm 23.5 24.1 17.7 70 3.6 ESE 11 17 6 9 - - 0.0
22/07:00pm 23.1 24.6 17.6 71 3.4 E 6 7 3 4 - - 0.0
22/06:30pm 24.6 25.0 17.3 64 4.5 E 11 17 6 9 - - 0.0
22/06:00pm 25.0 25.5 17.5 63 4.7 E 11 17 6 9 - - 0.0
22/05:30pm 26.0 25.1 16.8 57 5.7 E 17 26 9 14 - - 0.0
22/05:00pm 26.5 25.3 17.0 56 5.9 E 19 33 10 18 - - 0.0
22/04:30pm 27.2 25.5 17.1 54 6.3 E 22 35 12 19 - - 0.0
22/04:00pm 27.6 25.9 16.2 49 7.0 E 20 35 11 19 - - 0.0
22/03:30pm 28.3 26.7 16.6 49 7.3 E 20 32 11 17 - - 0.0
22/03:00pm 28.8 26.7 15.3 43 8.3 E 20 32 11 17 - - 0.0
22/02:30pm 28.5 26.8 15.8 46 7.8 E 19 37 10 20 - - 0.0
22/02:00pm 28.2 26.8 16.5 49 7.3 E 19 28 10 15 - - 0.0
22/01:30pm 28.5 26.8 15.8 46 7.8 E 19 32 10 17 - - 0.0
22/01:00pm 27.6 25.3 15.6 48 7.3 E 22 37 12 20 - - 0.0
22/12:30pm 27.8 25.4 15.5 47 7.5 ESE 22 41 12 22 - - 0.0
22/12:00pm 27.4 24.5 15.1 47 7.5 E 24 37 13 20 - - 0.0
22/11:30am 27.5 25.4 16.1 49 7.0 ESE 22 39 12 21 - - 0.0
22/11:00am 27.1 24.6 16.1 51 6.8 ESE 24 35 13 19 - - 0.0
22/10:30am 26.5 24.5 16.4 53 6.2 ESE 22 37 12 20 - - 0.0
22/10:00am 25.8 24.7 17.7 61 5.1 ESE 20 28 11 15 - - 0.0
22/09:30am 26.0 25.8 18.4 63 4.8 ESE 17 24 9 13 - - 0.0
22/09:00am 24.7 23.6 17.4 64 4.5 SE 19 30 10 16 - - 0.0
22/08:30am 24.0 23.7 18.2 70 3.6 SE 17 30 9 16 - - 0.0
22/08:00am 23.2 24.1 18.3 74 3.1 SSE 11 19 6 10 - - 0.0
22/07:30am 22.4 23.7 18.4 78 2.5 SSE 9 15 5 8 - - 0.0
22/07:00am 21.0 22.0 17.8 82 2.0 SSE 9 15 5 8 - - 0.0
22/06:30am 20.2 21.5 17.6 85 1.6 SSE 7 13 4 7 - - 0.0
22/06:00am 20.0 20.8 17.2 84 1.7 S 9 11 5 6 - - 0.0
22/05:30am 20.4 21.3 17.6 84 1.7 SSE 9 15 5 8 - - 0.0
22/05:00am 20.6 21.4 17.4 82 2.0 SSE 9 15 5 8 - - 0.0
22/04:30am 21.1 21.7 17.7 81 2.1 SSE 11 19 6 10 - - 0.0
22/04:00am 20.9 22.3 17.7 82 2.0 SSE 7 13 4 7 - - 0.0
22/03:30am 21.1 22.0 17.5 80 2.2 SSE 9 15 5 8 - - 0.0
22/03:00am 21.6 21.9 17.8 79 2.4 SE 13 19 7 10 - - 0.0
22/02:30am 22.2 22.2 18.0 77 2.6 SE 15 24 8 13 - - 0.0
22/02:00am 21.7 22.4 17.9 79 2.4 SSE 11 19 6 10 - - 0.0
22/01:30am 21.6 22.3 18.0 80 2.2 SSE 11 17 6 9 - - 0.0
22/01:00am 21.0 21.6 17.6 81 2.1 SSE 11 15 6 8 - - 0.0
22/12:30am 21.1 21.9 17.3 79 2.3 SSE 9 11 5 6 - - 0.0
22/12:00am 21.3 22.3 17.7 80 2.2 SSE 9 15 5 8 - - 0.0
 
Date/Time
EST
Temp
°C
App
Temp
°C
Dew
Point
°C
Rel
Hum
%
Delta-T
°C
Wind Press
QNH
hPa
Press
MSL
hPa
Rain since
9am
mm
Dir  Spd
km/h
Gust
km/h
Spd
kts
Gust
kts
21/11:30pm 21.2 22.0 17.4 79 2.3 SSE 9 15 5 8 - - 0.0
21/11:00pm 21.4 22.4 17.8 80 2.2 SSE 9 15 5 8 - - 0.0
21/10:30pm 20.9 22.2 17.1 79 2.3 SSE 6 9 3 5 - - 0.0
21/10:00pm 21.5 22.9 17.3 77 2.6 SSE 6 9 3 5 - - 0.0
21/09:30pm 22.3 23.4 17.9 76 2.7 SSE 9 19 5 10 - - 0.0
21/09:00pm 22.4 23.7 17.5 74 3.0 SSE 7 11 4 6 - - 0.0
21/08:30pm 23.2 23.5 17.9 72 3.3 SE 13 17 7 9 - - 0.0
21/08:00pm 23.5 24.2 17.9 71 3.5 SE 11 15 6 8 - - 0.0
21/07:30pm 24.1 25.0 18.3 70 3.7 ESE 11 17 6 9 - - 0.0
21/07:00pm 24.7 25.1 18.2 67 4.1 E 13 22 7 12 - - 0.0
21/06:30pm 25.1 24.5 17.6 63 4.7 ESE 17 26 9 14 - - 0.0
21/06:00pm 25.5 25.4 17.9 63 4.8 E 15 24 8 13 - - 0.0
21/05:30pm 26.2 25.3 17.8 60 5.3 E 19 32 10 17 - - 0.0
21/05:00pm 26.8 25.6 17.6 57 5.8 E 20 32 11 17 - - 0.0
21/04:30pm 27.4 25.9 17.6 55 6.2 E 22 33 12 18 - - 0.0
21/04:00pm 27.9 26.2 17.1 51 6.8 E 22 32 12 17 - - 0.0
21/03:30pm 28.8 27.7 17.3 49 7.3 E 19 28 10 15 - - 0.0
21/03:00pm 29.0 28.4 17.5 49 7.3 E 17 26 9 14 - - 0.0
21/02:30pm 28.7 26.9 15.9 45 7.9 E 20 35 11 19 - - 0.0
21/02:00pm 29.5 27.7 16.0 44 8.4 E 20 35 11 19 - - 0.0
21/01:30pm 29.4 27.2 15.9 44 8.4 E 22 33 12 18 - - 0.0
21/01:00pm 29.6 28.1 16.8 46 8.0 ESE 20 33 11 18 - - 0.0
21/12:30pm 28.8 27.1 17.3 49 7.3 ESE 22 35 12 19 - - 0.0
21/12:00pm 28.8 27.0 17.0 49 7.4 ESE 22 37 12 20 - - 0.0
21/11:30am 28.7 27.3 17.9 52 6.9 ESE 22 39 12 21 - - 0.0
21/11:00am 28.2 26.6 17.4 52 6.8 ESE 22 35 12 19 - - 0.0
21/10:30am 27.8 26.5 17.3 52 6.6 ESE 20 35 11 19 - - 0.0
21/10:00am 27.3 26.3 18.0 56 5.9 ESE 20 35 11 19 - - 0.0
21/09:30am 26.8 26.3 17.8 57 5.7 SE 17 28 9 15 - - 0.0
21/09:00am 25.9 25.3 17.5 59 5.3 SE 17 26 9 14 - - 0.2
21/08:30am 24.9 23.9 17.6 64 4.6 SE 19 30 10 16 - - 0.2
21/08:00am 23.0 23.4 17.2 70 3.6 S 11 17 6 9 - - 0.2
21/07:30am 21.9 22.2 17.1 74 2.9 S 11 17 6 9 - - 0.2
21/07:00am 20.7 21.3 16.9 79 2.3 S 9 13 5 7 - - 0.2
21/06:30am 20.3 20.5 16.7 80 2.2 SSE 11 17 6 9 - - 0.2
21/06:00am 20.3 20.8 16.5 79 2.3 SSE 9 13 5 7 - - 0.2
21/05:30am 20.4 20.5 16.6 79 2.3 SSE 11 17 6 9 - - 0.2
21/05:00am 20.5 20.7 16.7 79 2.3 SSE 11 15 6 8 - - 0.2
21/04:30am 20.4 20.9 16.6 79 2.3 SSE 9 13 5 7 - - 0.2
21/04:00am 20.3 20.9 16.7 80 2.2 SSE 9 11 5 6 - - 0.2
21/03:30am 20.0 20.8 16.4 80 2.2 S 7 11 4 6 - - 0.2
21/03:00am 20.4 21.2 16.4 78 2.4 SSE 7 9 4 5 - - 0.2
21/02:30am 20.9 21.4 16.5 76 2.7 SSE 9 13 5 7 - - 0.2
21/02:00am 21.3 21.5 16.7 75 2.8 SSE 11 13 6 7 - - 0.2
21/01:30am 21.7 22.2 16.6 73 3.1 SSE 9 13 5 7 - - 0.2
21/01:00am 21.6 22.4 17.2 76 2.7 SSE 9 13 5 7 - - 0.2
21/12:30am 21.5 23.4 17.7 79 2.3 SSE 4 11 2 6 - - 0.2
21/12:00am 21.3 22.8 17.7 80 2.2 SSE 6 9 3 5 - - 0.2
 
Date/Time
EST
Temp
°C
App
Temp
°C
Dew
Point
°C
Rel
Hum
%
Delta-T
°C
Wind Press
QNH
hPa
Press
MSL
hPa
Rain since
9am
mm
Dir  Spd
km/h
Gust
km/h
Spd
kts
Gust
kts
20/11:30pm 21.3 22.7 17.9 81 2.1 S 7 11 4 6 - - 0.2
20/11:00pm 21.8 23.3 17.6 77 2.6 SE 6 9 3 5 - - 0.2
20/10:30pm 22.8 24.1 17.5 72 3.3 SSE 7 13 4 7 - - 0.2
20/10:00pm 23.5 24.8 18.4 73 3.2 SE 9 15 5 8 - - 0.2

Other Formats:

Comma delimited format used in spreadsheet applications
http://www.bom.gov.au/fwo/IDQ60801/IDQ60801.95295.axf

JavaScript Object Notation format (JSON) in row-major order
http://www.bom.gov.au/fwo/IDQ60801/IDQ60801.95295.json